Stockton, New Jersey
Current Conditions -  °F | °C
As of 4:04 AM on Wednesday 22 Oct 2014 (Local Time) from KDYL Reporting Station
Overcast Overcast  
Wind Chill: 11°   Ceiling: 1300
Heat Index: 11°   Visibility: 10mi
Dew Point: 11°   Wind: 8mph
Humidity: 100%   Direction: 20°NNE
Pressure: 29.85"   Gusts: NA
Location:  40.41°N, 74.98°W
Report Text: KDYL 220804Z AUTO 02007KT 10SM OVC013 11/11 A2985 RMK AO2 T01060106
Loading
Personal Weather Stations






























Interactive Weather Map
Tropical Storm Tracking
New forecast layout! Learn more

10-Day Weather Forecast

Advertisements
Track Severe Weather on mobile